Boyarka, Ukraine
Current Conditions -  °F | °C
As of 5:00 PM on Thursday 23 Oct 2014 (Local Time) from UKKK Reporting Station
Clear Clear  
Wind Chill: 28°   Ceiling: Unl
Heat Index: 37°   Visibility: 6mi
Dew Point: 21°   Wind: 18mph
Humidity: 52%   Direction: 70°ENE
Pressure: 30.15"   Gusts: NA
Location:  50.32°N, 30.32°E
Report Text: UKKK 231400Z 07008MPS CAVOK 03/M06 Q1021 08CLRD70 NOSIG
Loading
Personal Weather Stations






























Interactive Weather Map
Tropical Storm Tracking
New forecast layout! Learn more

10-Day Weather Forecast

Advertisements
Track Severe Weather on mobile